D/T METAR WX W/DIR W/SPE G/SPE TEMP DEWP
15/01/19 19:30 EIKY 151930Z 24013KT 9999 FEW011 BKN026 10/08 Q1009 WSW (240°) 15.0mph 10°C 8°C
15/01/19 19:00 EIKY 151900Z 24013KT 9999 FEW013 SCT026 BKN030 10/08 Q1010 WSW (240°) 15.0mph 10°C 8°C
15/01/19 18:30 EIKY 151830Z 23014KT 9999 -RA FEW014 SCT021 BKN029 10/08 Q1010 -RA SW (230°) 16.1mph 10°C 8°C
15/01/19 18:00 EIKY 151800Z 24011KT 9999 FEW013 SCT021 BKN027 10/08 Q1011 WSW (240°) 12.7mph 10°C 8°C
15/01/19 17:30 EIKY 151730Z 21010KT 9999 SCT013 BKN020 BKN028 10/07 Q1011 SSW (210°) 11.5mph 10°C 7°C
15/01/19 17:00 EIKY 151700Z 23014KT 9999 FEW013 SCT019 BKN026 10/08 Q1011 SW (230°) 16.1mph 10°C 8°C
15/01/19 16:30 EIKY 151630Z 23015KT 9999 SCT019 BKN024 OVC033 10/08 Q1012 SW (230°) 17.3mph 10°C 8°C
15/01/19 16:00 EIKY 151600Z 25015KT 9999 -RA FEW012 BKN017 OVC030 10/08 Q1012 -RA WSW (250°) 17.3mph 10°C 8°C
15/01/19 15:00 EIKY 151500Z 24015KT 9999 SCT020 BKN028 11/08 Q1013 WSW (240°) 17.3mph 11°C 8°C
15/01/19 14:30 EIKY 151430Z 23013KT 9999 VCSH FEW014 SCT018 BKN025 11/08 Q1013 VCSH SW (230°) 15.0mph 11°C 8°C
15/01/19 14:00 EIKY 151400Z 23012KT 9999 FEW013 SCT016 BKN024 BKN035 11/08 Q1014 SW (230°) 13.8mph 11°C 8°C
15/01/19 13:30 EIKY 151330Z 24015KT 9999 FEW019 BKN020 11/09 Q1015 WSW (240°) 17.3mph 11°C 9°C
15/01/19 13:00 EIKY 151300Z 24013KT 9999 FEW014 BKN025 11/09 Q1015 WSW (240°) 15.0mph 11°C 9°C
15/01/19 12:30 EIKY 151230Z 23014KT 9999 FEW013 BKN015 BKN029 10/08 Q1016 SW (230°) 16.1mph 10°C 8°C
15/01/19 12:00 EIKY 151200Z 24012KT 9999 SCT013 BKN025 BKN032 10/08 Q1016 WSW (240°) 13.8mph 10°C 8°C
15/01/19 11:30 EIKY 151130Z 23011KT 9999 SCT013 BKN018 10/08 Q1017 SW (230°) 12.7mph 10°C 8°C
15/01/19 11:00 EIKY 151100Z 24005KT 9999 SCT012 BKN018 BKN029 10/08 Q1017 WSW (240°) 5.8mph 10°C 8°C
15/01/19 10:00 EIKY 151000Z 23009KT 9999 SCT012 SCT022 09/08 Q1018 SW (230°) 10.4mph 9°C 8°C
15/01/19 09:30 EIKY 150930Z 24008KT 9999 SCT023 BKN030 09/08 Q1018 WSW (240°) 9.2mph 9°C 8°C
15/01/19 09:00 EIKY 150900Z 24009KT 9999 SCT010 BKN026 09/08 Q1018 WSW (240°) 10.4mph 9°C 8°C
15/01/19 08:30 EIKY 150830Z 24008KT 9999 SCT017 BKN025 09/08 Q1018 WSW (240°) 9.2mph 9°C 8°C
15/01/19 08:00 EIKY 150800Z 22004KT 170V250 9999 BKN026 09/07 Q1018 SW (220°) 4.6mph 9°C 7°C
15/01/19 07:30 EIKY 150730Z 24006KT 9999 OVC027 08/07 Q1019 WSW (240°) 6.9mph 8°C 7°C
14/01/19 19:30 EIKY 141930Z 25007KT 9999 BKN032 09/07 Q1024 WSW (250°) 8.1mph 9°C 7°C
14/01/19 19:00 EIKY 141900Z 25007KT 9999 SCT015 BKN026 BKN036 09/08 Q1024 WSW (250°) 8.1mph 9°C 8°C
14/01/19 18:30 EIKY 141830Z 24010KT 9999 BKN024 OVC035 09/08 Q1024 WSW (240°) 11.5mph 9°C 8°C
14/01/19 18:00 EIKY 141800Z 24007KT 9999 BKN006 09/08 Q1024 WSW (240°) 8.1mph 9°C 8°C
14/01/19 17:30 EIKY 141730Z 24006KT 4400 DZ BKN006 OVC013 09/08 Q1024 DZ WSW (240°) 6.9mph 9°C 8°C
14/01/19 17:00 EIKY 141700Z 25007KT 9999 FEW010 BKN021 OVC033 09/08 Q1024 WSW (250°) 8.1mph 9°C 8°C
14/01/19 16:30 EIKY 141630Z 25010KT 9999 SCT013 BKN027 OVC033 09/08 Q1024 WSW (250°) 11.5mph 9°C 8°C
14/01/19 16:00 EIKY 141600Z 26007KT 9999 BKN016 OVC021 10/07 Q1024 W (260°) 8.1mph 10°C 7°C
14/01/19 15:30 EIKY 141530Z 25009KT 9999 FEW017 BKN021 OVC036 10/07 Q1024 WSW (250°) 10.4mph 10°C 7°C
14/01/19 15:00 EIKY 141500Z 25011KT 9999 SCT019 SCT022 BKN026 10/07 Q1025 WSW (250°) 12.7mph 10°C 7°C
14/01/19 14:30 EIKY 141430Z 25009KT 9999 FEW019 BKN024 10/07 Q1025 WSW (250°) 10.4mph 10°C 7°C
14/01/19 14:00 EIKY 141400Z 25010KT 9999 BKN024 OVC029 10/06 Q1025 WSW (250°) 11.5mph 10°C 6°C
14/01/19 13:00 EIKY 141300Z 27005KT 240V310 9999 BKN026 10/06 Q1026 W (270°) 5.8mph 10°C 6°C
14/01/19 12:30 EIKY 141230Z 26007KT 9999 BKN026 BKN045 09/06 Q1026 W (260°) 8.1mph 9°C 6°C
14/01/19 12:00 EIKY 141200Z 25007KT 9999 BKN027 09/05 Q1026 WSW (250°) 8.1mph 9°C 5°C
14/01/19 11:30 EIKY 141130Z 25006KT 9999 BKN026 09/05 Q1026 WSW (250°) 6.9mph 9°C 5°C
14/01/19 11:00 EIKY 141100Z 27004KT 240V310 9999 BKN025 09/05 Q1026 W (270°) 4.6mph 9°C 5°C
14/01/19 10:30 EIKY 141030Z 26004KT 9999 BKN025 08/05 Q1026 W (260°) 4.6mph 8°C 5°C
14/01/19 10:00 EIKY 141000Z VRB01KT 9999 SCT028 07/05 Q1026 N (0°) 1.2mph 7°C 5°C
14/01/19 09:30 EIKY 140930Z 26003KT 9999 SCT028 06/04 Q1026 W (260°) 3.5mph 6°C 4°C
14/01/19 09:00 EIKY 140900Z 27002KT 9999 SCT028 07/04 Q1026 W (270°) 2.3mph 7°C 4°C
14/01/19 08:30 EIKY 140830Z 28002KT 9999 BKN028 08/04 Q1026 W (280°) 2.3mph 8°C 4°C
14/01/19 08:00 EIKY 140800Z 26004KT 9999 BKN031 08/04 Q1026 W (260°) 4.6mph 8°C 4°C
14/01/19 07:30 EIKY 140730Z 25004KT 9999 BKN029 08/04 Q1026 WSW (250°) 4.6mph 8°C 4°C
14/01/19 07:00 EIKY 140700Z 25004KT 9999 BKN028 08/04 Q1026 WSW (250°) 4.6mph 8°C 4°C
14/01/19 06:30 EIKY 140630Z 27004KT 250V310 9999 BKN032 BKN037 08/04 Q1026 W (270°) 4.6mph 8°C 4°C
14/01/19 06:00 EIKY 140600Z 27004KT 240V300 9999 BKN034 08/04 Q1026 W (270°) 4.6mph 8°C 4°C
13/01/19 19:30 EIKY 131930Z 30007KT 270V330 9999 BKN023 OVC029 10/07 Q1023 WNW (300°) 8.1mph 10°C 7°C
13/01/19 19:00 EIKY 131900Z 31008KT 270V340 9999 -RA FEW016 BKN025 10/08 Q1023 -RA NW (310°) 9.2mph 10°C 8°C
13/01/19 18:30 EIKY 131830Z 28008G18KT 250V310 9999 FEW023 BKN028 OVC036 10/08 Q1023 W (280°) 9.2mph 20.7mph 10°C 8°C
13/01/19 18:00 EIKY 131800Z 30007KT 240V330 9999 FEW012 BKN030 BKN039 10/08 Q1023 WNW (300°) 8.1mph 10°C 8°C
13/01/19 17:00 EIKY 131700Z 29009KT 260V330 9999 -RA BKN005 OVC015 10/09 Q1023 RERA -RA WNW (290°) 10.4mph 10°C 9°C
13/01/19 16:30 EIKY 131630Z 29010KT 250V320 3000 -RA OVC005 10/10 Q1022 -RA WNW (290°) 11.5mph 10°C 10°C
13/01/19 16:00 EIKY 131600Z 28010KT 240V320 6000 -RA BKN007 OVC014 10/09 Q1022 -RA W (280°) 11.5mph 10°C 9°C
13/01/19 15:00 EIKY 131500Z 29010KT 7000 -RA BKN006 11/10 Q1023 -RA WNW (290°) 11.5mph 11°C 10°C
13/01/19 14:30 EIKY 131430Z 29011G22KT 250V330 5000 -RA OVC007 11/09 Q1023 -RA WNW (290°) 12.7mph 25.3mph 11°C 9°C
13/01/19 14:00 EIKY 131400Z 30013G27KT 270V340 9999 BKN008 OVC010 11/10 Q1023 WNW (300°) 15.0mph 31.1mph 11°C 10°C
13/01/19 13:30 EIKY 131330Z 27007KT 240V310 7000 -DZ BKN008 10/10 Q1023 -DZ W (270°) 8.1mph 10°C 10°C
13/01/19 13:00 EIKY 131300Z 28007G17KT 250V320 8000 -DZ BKN007 10/09 Q1023 -DZ W (280°) 8.1mph 19.6mph 10°C 9°C
13/01/19 12:30 EIKY 131230Z 27008KT 240V310 8000 -DZ SCT005 OVC007 10/09 Q1023 -DZ W (270°) 9.2mph 10°C 9°C
13/01/19 12:00 EIKY 131200Z 28009KT 250V310 6000 -DZ OVC007 10/09 Q1023 -DZ W (280°) 10.4mph 10°C 9°C
13/01/19 11:30 EIKY 131130Z 29009KT 8000 -DZ BKN007 OVC010 10/09 Q1023 -DZ WNW (290°) 10.4mph 10°C 9°C
13/01/19 11:00 EIKY 131100Z 29008KT 260V340 3200 +DZ BKN007 BKN014 BKN017 10/09 Q1024 +DZ WNW (290°) 9.2mph 10°C 9°C
13/01/19 10:30 EIKY 131030Z 29006KT 250V330 9000 -DZ BKN008 BKN014 10/08 Q1024 -DZ WNW (290°) 6.9mph 10°C 8°C
13/01/19 10:00 EIKY 131000Z 30007KT 240V340 9999 FEW012 BKN015 BKN020 10/08 Q1024 WNW (300°) 8.1mph 10°C 8°C
13/01/19 09:30 EIKY 130930Z 26005KT 9999 SCT015 BKN018 BKN024 09/08 Q1024 W (260°) 5.8mph 9°C 8°C
13/01/19 09:00 EIKY 130900Z 26010KT 240V300 9999 SCT012 BKN019 BKN026 09/08 Q1024 W (260°) 11.5mph 9°C 8°C
13/01/19 08:30 EIKY 130830Z 24006KT 9999 FEW013 BKN022 09/07 Q1024 WSW (240°) 6.9mph 9°C 7°C
13/01/19 08:00 EIKY 130800Z 28006KT 250V310 9999 SCT012 BKN021 09/08 Q1024 W (280°) 6.9mph 9°C 8°C
12/01/19 19:30 EIKY 121930Z 28005KT 240V330 9999 OVC005 09/09 Q1029 W (280°) 5.8mph 9°C 9°C
12/01/19 19:00 EIKY 121900Z 28007KT 250V310 9999 OVC005 09/09 Q1029 W (280°) 8.1mph 9°C 9°C
12/01/19 18:30 EIKY 121830Z 27007KT 240V300 9999 BKN005 OVC011 10/09 Q1029 W (270°) 8.1mph 10°C 9°C
12/01/19 18:00 EIKY 121800Z 27006KT 240V310 9999 BKN006 OVC012 09/09 Q1029 W (270°) 6.9mph 9°C 9°C
12/01/19 17:30 EIKY 121730Z 30005KT 250V330 9999 BKN006 BKN009 10/09 Q1029 WNW (300°) 5.8mph 10°C 9°C
12/01/19 17:00 EIKY 121700Z 29005KT 230V330 9999 BKN006 BKN013 OVC015 10/09 Q1029 WNW (290°) 5.8mph 10°C 9°C
12/01/19 16:30 EIKY 121630Z 30007KT 260V330 9999 BKN005 BKN007 10/09 Q1029 WNW (300°) 8.1mph 10°C 9°C
12/01/19 16:00 EIKY 121600Z 31012KT 9999 -RA SCT005 BKN008 OVC016 10/09 Q1030 -RA NW (310°) 13.8mph 10°C 9°C
12/01/19 15:30 EIKY 121530Z 31012KT 280V340 9999 -RA BKN006 BKN011 OVC016 10/09 Q1029 -RA NW (310°) 13.8mph 10°C 9°C
12/01/19 15:00 EIKY 121500Z 29008KT 250V330 3600 -RA BR BKN005 OVC012 10/09 Q1029 -RA BR WNW (290°) 9.2mph 10°C 9°C
12/01/19 14:30 EIKY 121430Z 29009KT 260V320 4400 BR BKN006 OVC010 10/09 Q1030 BR WNW (290°) 10.4mph 10°C 9°C
12/01/19 14:00 EIKY 121400Z 31011KT 270V340 9999 BKN008 OVC011 10/09 Q1030 NW (310°) 12.7mph 10°C 9°C
12/01/19 13:30 EIKY 121330Z 31009KT 250V350 9000 -RA BKN008 OVC011 10/08 Q1030 -RA NW (310°) 10.4mph 10°C 8°C
12/01/19 13:00 EIKY 121300Z 30008KT 270V340 4000 -RA BKN007 BKN012 OVC018 10/09 Q1030 -RA WNW (300°) 9.2mph 10°C 9°C
12/01/19 12:30 EIKY 121230Z 29008KT 250V310 9999 -RA FEW008 OVC010 10/08 Q1031 -RA WNW (290°) 9.2mph 10°C 8°C
12/01/19 12:00 EIKY 121200Z 29008KT 250V340 9999 BKN009 OVC013 10/08 Q1031 WNW (290°) 9.2mph 10°C 8°C
12/01/19 11:30 EIKY 121130Z 29008KT 250V320 9999 -RA BKN009 OVC016 10/08 Q1031 -RA WNW (290°) 9.2mph 10°C 8°C
12/01/19 11:00 EIKY 121100Z 29009KT 240V320 9999 SCT007 BKN012 OVC019 10/08 Q1031 WNW (290°) 10.4mph 10°C 8°C
12/01/19 10:30 EIKY 121030Z 29007KT 250V320 9999 BKN011 OVC016 10/07 Q1031 WNW (290°) 8.1mph 10°C 7°C
12/01/19 10:00 EIKY 121000Z 28006KT 230V310 9999 -RA FEW008 BKN010 09/08 Q1031 -RA W (280°) 6.9mph 9°C 8°C
12/01/19 09:30 EIKY 120930Z 28006KT 240V310 9999 BKN012 OVC016 09/07 Q1031 W (280°) 6.9mph 9°C 7°C
12/01/19 09:00 EIKY 120900Z 28006KT 240V330 9999 -RA SCT011 SCT013 BKN017 09/07 Q1030 -RA W (280°) 6.9mph 9°C 7°C
12/01/19 08:30 EIKY 120830Z 28009KT 240V320 9999 SCT013 BKN022 09/07 Q1030 W (280°) 10.4mph 9°C 7°C
12/01/19 08:00 EIKY 120800Z 29009KT 240V320 9999 -RA SCT012 BKN023 09/07 Q1030 -RA WNW (290°) 10.4mph 9°C 7°C
12/01/19 07:30 EIKY 120730Z 29009KT 250V320 9999 SCT014 BKN023 09/06 Q1030 WNW (290°) 10.4mph 9°C 6°C
12/01/19 07:00 EIKY 120700Z 30008KT 260V330 9999 -RA SCT013 OVC022 09/07 Q1030 -RA WNW (300°) 9.2mph 9°C 7°C
11/01/19 19:30 EIKY 111930Z 27007KT 240V310 3700 -RA BKN004 OVC016 09/09 Q1034 -RA W (270°) 8.1mph 9°C 9°C
11/01/19 19:00 EIKY 111900Z 27007KT 250V310 9999 BKN006 OVC017 09/09 Q1034 W (270°) 8.1mph 9°C 9°C
11/01/19 18:30 EIKY 111830Z 25006KT 9999 -RA BR BKN005 BKN009 OVC016 09/09 Q1034 -RA BR WSW (250°) 6.9mph 9°C 9°C
11/01/19 18:00 EIKY 111800Z 27008KT 240V300 9999 -RA FEW006 BKN008 OVC012 09/09 Q1034 -RA W (270°) 9.2mph 9°C 9°C
11/01/19 17:30 EIKY 111730Z 25009KT 9000 BKN006 OVC017 09/09 Q1033 WSW (250°) 10.4mph 9°C 9°C
11/01/19 17:00 EIKY 111700Z 26009KT 240V300 9999 -RA BKN005 BKN013 BKN015 09/09 Q1034 -RA W (260°) 10.4mph 9°C 9°C
11/01/19 16:30 EIKY 111630Z 27008KT 240V300 3500 DZ BKN005 OVC013 09/09 Q1034 DZ W (270°) 9.2mph 9°C 9°C
11/01/19 16:00 EIKY 111600Z 27008KT 240V310 2600 DZ FEW007 BKN010 10/09 Q1034 DZ W (270°) 9.2mph 10°C 9°C
11/01/19 15:30 EIKY 111530Z 25012KT 9999 FEW011 BKN014 BKN019 10/08 Q1034 WSW (250°) 13.8mph 10°C 8°C
11/01/19 15:00 EIKY 111500Z 27008KT 250V330 9999 FEW011 BKN021 11/09 Q1034 W (270°) 9.2mph 11°C 9°C
11/01/19 14:30 EIKY 111430Z 27009KT 9999 FEW010 BKN025 10/08 Q1034 W (270°) 10.4mph 10°C 8°C
11/01/19 14:00 EIKY 111400Z 27009KT 240V300 9999 SCT010 BKN019 10/09 Q1034 W (270°) 10.4mph 10°C 9°C
11/01/19 13:30 EIKY 111330Z 27009KT 9999 FEW008 SCT021 BKN024 10/08 Q1035 W (270°) 10.4mph 10°C 8°C
11/01/19 13:00 EIKY 111300Z 26007KT 9999 FEW005 BKN010 10/09 Q1035 W (260°) 8.1mph 10°C 9°C
11/01/19 12:30 EIKY 111230Z 25007KT 230V300 9999 FEW007 SCT009 BKN027 11/09 Q1035 WSW (250°) 8.1mph 11°C 9°C
11/01/19 12:00 EIKY 111200Z 28003KT 220V340 9999 BKN007 10/09 Q1036 W (280°) 3.5mph 10°C 9°C
11/01/19 11:30 EIKY 111130Z 25006KT 9999 BKN006 09/09 Q1036 WSW (250°) 6.9mph 9°C 9°C
11/01/19 11:00 EIKY 111100Z 26008KT 9999 BKN005 OVC007 09/09 Q1036 W (260°) 9.2mph 9°C 9°C
11/01/19 10:30 EIKY 111030Z 25005KT 220V290 9999 SCT006 BKN008 BKN029 09/09 Q1036 WSW (250°) 5.8mph 9°C 9°C
11/01/19 10:00 EIKY 111000Z 23005KT 9999 BKN005 09/09 Q1036 SW (230°) 5.8mph 9°C 9°C
11/01/19 09:30 EIKY 110930Z 26003KT 240V300 9999 SCT006 BKN009 OVC027 09/09 Q1036 W (260°) 3.5mph 9°C 9°C
11/01/19 09:00 EIKY 110900Z 23004KT 9999 SCT009 BKN012 OVC018 09/09 Q1036 SW (230°) 4.6mph 9°C 9°C
11/01/19 08:00 EIKY 110800Z VRB02KT 8000 BKN005 OVC016 09/09 Q1035 N (0°) 2.3mph 9°C 9°C
11/01/19 07:30 EIKY 110730Z 00000KT 3900 BR FEW004 BKN020 OVC031 09/09 Q1035 BR N (0°) 9°C 9°C
11/01/19 07:00 EIKY 110700Z 00000KT 6000 -RA BR BKN002 BKN009 OVC019 09/08 Q1035 -RA BR N (0°) 9°C 8°C
11/01/19 06:30 EIKY 110630Z 24003KT 3000 BR OVC002 09/09 Q1035 BR WSW (240°) 3.5mph 9°C 9°C
10/01/19 20:00 EIKY 102000Z VRB01KT 0450 FG VV002 09/09 Q1035 FG N (0°) 1.2mph 9°C 9°C
10/01/19 19:30 EIKY 101930Z 05001KT 0300 FG FEW002 BKN004 OVC024 10/09 Q1034 FG NE (50°) 1.2mph 10°C 9°C
10/01/19 19:00 EIKY 101900Z 00000KT 4100 BR SCT003 BKN005 OVC045 10/09 Q1034 BR N (0°) 10°C 9°C
10/01/19 18:00 EIKY 101800Z 27001KT 9999 SCT017 BKN034 OVC042 10/10 Q1034 W (270°) 1.2mph 10°C 10°C
10/01/19 17:30 EIKY 101730Z 21002KT 9999 BKN024 10/10 Q1034 SSW (210°) 2.3mph 10°C 10°C
10/01/19 17:00 EIKY 101700Z VRB01KT 9999 BKN021 BKN038 11/10 Q1034 N (0°) 1.2mph 11°C 10°C
10/01/19 16:30 EIKY 101630Z 00000KT 9999 SCT010 BKN024 11/10 Q1034 N (0°) 11°C 10°C
10/01/19 16:00 EIKY 101600Z VRB02KT 9999 SCT012 BKN026 11/10 Q1034 N (0°) 2.3mph 11°C 10°C
10/01/19 15:00 EIKY 101500Z VRB02KT 9999 SCT009 BKN016 OVC037 11/10 Q1034 N (0°) 2.3mph 11°C 10°C
10/01/19 14:30 EIKY 101430Z 00000KT 9999 BKN012 OVC020 11/10 Q1034 N (0°) 11°C 10°C
10/01/19 14:00 EIKY 101400Z VRB01KT 9999 SCT007 OVC013 11/10 Q1034 N (0°) 1.2mph 11°C 10°C
10/01/19 13:30 EIKY 101330Z VRB02KT 9999 SCT007 BKN011 11/10 Q1034 N (0°) 2.3mph 11°C 10°C
10/01/19 13:00 EIKY 101300Z 00000KT 9999 FEW003 BKN008 11/10 Q1034 N (0°) 11°C 10°C
10/01/19 12:30 EIKY 101230Z VRB01KT 9999 FEW005 BKN007 11/10 Q1034 N (0°) 1.2mph 11°C 10°C
10/01/19 12:00 EIKY 101200Z 34003KT 300V360 9999 FEW005 BKN010 OVC037 11/10 Q1034 NNW (340°) 3.5mph 11°C 10°C
10/01/19 11:30 EIKY 101130Z VRB02KT 9999 OVC004 10/10 Q1034 N (0°) 2.3mph 10°C 10°C
10/01/19 11:00 EIKY 101100Z 00000KT 9000 OVC002 10/10 Q1034 N (0°) 10°C 10°C
10/01/19 10:30 EIKY 101030Z VRB01KT 3800 BR OVC002 10/10 Q1034 BR N (0°) 1.2mph 10°C 10°C
10/01/19 10:00 EIKY 101000Z VRB01KT 1800 -RA BR BKN002 OVC010 10/10 Q1034 -RA BR N (0°) 1.2mph 10°C 10°C
10/01/19 09:30 EIKY 100930Z 00000KT 2400 BR OVC002 10/09 Q1034 BR N (0°) 10°C 9°C